Dulles, VA (20189)

3:44 PM EDT on August 24, 2016 (GMT -0400)
Sterling Park | | Change Station

Elev 348 ft 38.99 °N, 77.41 °W | Updated 1 second ago

Scattered Clouds
Scattered Clouds
85.1 °F
Feels Like 85 °F
N
1.3
Wind Variable Wind from South
Gusts 2.5 mph

Today
High -- | Low -- °F
--% Chance of Precip.
Yesterday
High -- | Low -- °F
Precip. -- in
Pressure 30.22 in
Visibility 10.0 miles
Clouds Scattered Clouds 4800 ft
Scattered Clouds 25000 ft
Heat Index 85 °F
Dew Point 60 °F
Humidity 43%
Rainfall 0.00 in
Snow Depth Not available.
6:31 AM 7:51 PM
Waning Gibbous, 54% visible
METAR KIAD 241852Z 19011KT 10SM SCT048 SCT250 29/17 A3022 RMK AO2 SLP231 T02890172
Pressure 30.22 in
Visibility 10.0 miles
Clouds Scattered Clouds 4800 ft
Scattered Clouds 25000 ft
Heat Index 85 °F
Dew Point 60 °F
Humidity 43%
Rainfall 0.00 in
Snow Depth Not available.
6:31 AM 7:51 PM
Waning Gibbous, 54% visible
METAR KIAD 241852Z 19011KT 10SM SCT048 SCT250 29/17 A3022 RMK AO2 SLP231 T02890172

10-Day Weather Forecast

Almanac

Astronomy

Aug. 24, 2016 Rise Set
Actual Time
Civil Twilight
Nautical Twilight
Astronomical Twilight
Moon
Length of Visible Light
Length of Day
Tomorrow will be .
, % of the Moon is Illuminated

Today's Extremes

State Highs State Lows

Community

WunderPhotos

Upload Photos

1,934,690 photos uploaded!

WunderBlog® & News

Nearby

Air Quality

  Air Quality AQ Index Pollutant
Not available.

Snow Depth

Station Depth Elevation

Earthquake Activity

City Distance Mag. Time & Date
Minimum magnitude displayed is 2.5.

Coastal Water Temperatures

Place Temperature

Stations

Nearby Weather Stations

Station Location Temp. Windchill Dew Point Humidity Wind Precip. Elev Updated Type
                   

Watches & Warnings

There are currently no watches in effect.